Time;durP1;ratioP1;P1;durP2;ratioP2;P2;SDS_P1;SDS_P2;PMS_P1;PMS_P2;Temp;Humidity;BMP_temperature;BMP_pressure;BME280_temperature;BME280_humidity;BME280_pressure;Samples;Min_cycle;Max_cycle;Signal;HPM_P1;HPM_P2
2022/09/20 00:01:46;;;;;;;9.43;2.90;;;10.20;99.90;;;;;;5062798;28;20709;-77
2022/09/20 00:04:12;;;;;;;8.50;1.77;;;10.20;99.90;;;;;;5062434;28;20229;-78
2022/09/20 00:06:39;;;;;;;8.60;2.33;;;10.30;99.90;;;;;;5049512;28;20227;-77
2022/09/20 00:09:06;;;;;;;6.37;1.57;;;10.30;99.90;;;;;;5061899;28;20199;-77
2022/09/20 00:11:35;;;;;;;13.60;2.33;;;10.20;99.90;;;;;;5054643;28;20209;-77
2022/09/20 00:14:07;;;;;;;6.43;1.83;;;10.30;99.90;;;;;;5065756;28;20229;-78
2022/09/20 00:16:36;;;;;;;7.33;1.73;;;10.40;99.90;;;;;;5054152;28;20219;-77
2022/09/20 00:19:04;;;;;;;4.83;2.00;;;10.30;99.90;;;;;;5059009;28;20252;-78
2022/09/20 00:21:35;;;;;;;5.17;1.63;;;10.30;99.90;;;;;;5056780;28;20211;-78
2022/09/20 00:24:02;;;;;;;6.23;1.40;;;10.30;99.90;;;;;;5058310;28;20218;-78
2022/09/20 00:26:29;;;;;;;7.33;1.80;;;10.30;99.90;;;;;;5056588;28;20230;-77
2022/09/20 00:28:58;;;;;;;6.57;1.50;;;10.30;99.90;;;;;;5060459;28;20454;-78
2022/09/20 00:31:26;;;;;;;7.93;1.70;;;10.30;99.90;;;;;;5062717;28;20205;-77
2022/09/20 00:36:39;;;;;;;5.50;1.57;;;10.20;99.90;;;;;;5050012;28;20305;-78
2022/09/20 00:39:05;;;;;;;5.70;1.60;;;10.20;99.90;;;;;;5053524;28;20203;-78
2022/09/20 00:41:33;;;;;;;5.00;1.43;;;10.10;99.90;;;;;;5058573;28;20195;-78
2022/09/20 00:44:02;;;;;;;7.33;1.33;;;10.10;99.90;;;;;;5052541;28;20592;-78
2022/09/20 00:46:35;;;;;;;6.73;1.97;;;10.10;99.90;;;;;;5045805;28;20268;-77
2022/09/20 00:49:07;;;;;;;5.83;1.50;;;10.10;99.90;;;;;;5046956;28;20199;-78
2022/09/20 00:51:37;;;;;;;4.80;1.60;;;10.10;99.90;;;;;;5051294;28;20312;-78
2022/09/20 00:54:07;;;;;;;3.77;1.23;;;10.10;99.90;;;;;;5051929;28;20586;-78
2022/09/20 00:56:37;;;;;;;9.07;2.13;;;10.10;99.90;;;;;;5050137;28;20650;-77
2022/09/20 00:59:12;;;;;;;6.17;1.87;;;10.00;99.90;;;;;;5063017;28;20195;-78
2022/09/20 01:01:39;;;;;;;6.20;1.60;;;10.00;99.90;;;;;;5063149;28;20198;-78
2022/09/20 01:04:06;;;;;;;4.53;1.50;;;9.90;99.90;;;;;;5050306;28;20229;-78
2022/09/20 01:06:34;;;;;;;7.03;1.50;;;9.90;99.90;;;;;;5052177;28;20227;-77
2022/09/20 01:09:06;;;;;;;6.80;1.90;;;9.80;99.90;;;;;;5056149;28;20212;-78
2022/09/20 01:11:35;;;;;;;5.47;1.50;;;9.70;99.90;;;;;;5063091;28;20206;-77
2022/09/20 01:14:02;;;;;;;5.70;1.60;;;9.70;99.90;;;;;;5053904;28;20293;-78
2022/09/20 01:16:32;;;;;;;5.97;1.50;;;9.70;99.90;;;;;;5054354;28;20718;-78
2022/09/20 01:19:02;;;;;;;6.07;1.87;;;9.50;99.90;;;;;;5052028;28;20205;-78
2022/09/20 01:21:29;;;;;;;7.20;2.33;;;9.40;99.90;;;;;;5051555;28;20576;-77
2022/09/20 01:24:05;;;;;;;7.70;2.10;;;9.40;99.90;;;;;;5054736;28;20708;-78
2022/09/20 01:26:58;;;;;;;5.13;2.30;;;9.40;99.90;;;;;;5061383;28;20226;-78
2022/09/20 01:29:47;;;;;;;6.63;2.77;;;9.40;99.90;;;;;;5058948;28;20203;-78
2022/09/20 01:32:20;;;;;;;8.63;2.77;;;9.40;99.90;;;;;;5052440;28;20249;-78
2022/09/20 01:34:51;;;;;;;7.97;2.63;;;9.50;99.90;;;;;;5054915;28;20225;-78
2022/09/20 01:37:25;;;;;;;5.03;2.50;;;9.40;99.90;;;;;;5062339;28;20218;-77
2022/09/20 01:40:02;;;;;;;5.17;3.00;;;9.30;99.90;;;;;;5051782;28;20194;-77
2022/09/20 01:42:36;;;;;;;7.80;2.23;;;9.40;99.90;;;;;;5049682;28;20203;-77
2022/09/20 01:45:14;;;;;;;9.70;3.20;;;9.40;99.90;;;;;;5058087;28;20223;-77
2022/09/20 01:47:47;;;;;;;8.70;2.43;;;9.50;99.90;;;;;;5047649;28;20203;-77
2022/09/20 01:50:26;;;;;;;11.03;3.00;;;9.50;99.90;;;;;;5053912;28;20199;-77
2022/09/20 01:53:11;;;;;;;11.50;3.00;;;9.60;99.90;;;;;;5040875;28;20233;-78
2022/09/20 01:56:15;;;;;;;9.53;2.90;;;9.60;99.90;;;;;;5041220;28;20239;-78
2022/09/20 01:59:24;;;;;;;7.97;2.40;;;9.70;99.90;;;;;;5049815;28;20199;-78
2022/09/20 02:02:10;;;;;;;8.00;2.70;;;9.80;99.90;;;;;;5002176;28;20197;-77
2022/09/20 02:05:11;;;;;;;8.73;2.87;;;9.80;99.90;;;;;;5011112;28;20223;-77
2022/09/20 02:07:58;;;;;;;7.00;2.30;;;9.80;99.90;;;;;;5040206;28;20205;-78
2022/09/20 02:10:41;;;;;;;7.30;2.43;;;9.90;99.90;;;;;;5055606;28;20598;-78
2022/09/20 02:13:13;;;;;;;7.93;2.33;;;9.90;99.90;;;;;;5039723;28;20214;-78
2022/09/20 02:16:04;;;;;;;8.10;2.70;;;10.00;99.90;;;;;;5073157;28;20221;-78
2022/09/20 02:18:47;;;;;;;6.40;2.20;;;10.00;99.90;;;;;;5065315;28;20499;-77
2022/09/20 02:21:26;;;;;;;4.20;2.07;;;10.00;99.90;;;;;;5049588;28;20211;-78
2022/09/20 02:24:03;;;;;;;5.30;2.40;;;10.00;99.90;;;;;;5046953;28;20199;-77
2022/09/20 02:26:41;;;;;;;10.10;2.17;;;10.00;99.90;;;;;;5055354;28;20211;-77
2022/09/20 02:29:22;;;;;;;7.30;2.30;;;10.10;99.90;;;;;;5056369;28;20206;-78
2022/09/20 02:32:08;;;;;;;8.80;2.70;;;10.10;99.90;;;;;;5050155;28;20596;-77
2022/09/20 02:34:52;;;;;;;12.97;2.70;;;10.10;99.90;;;;;;5052397;28;20197;-77
2022/09/20 02:37:51;;;;;;;7.43;2.80;;;10.10;99.90;;;;;;5055487;28;20210;-78
2022/09/20 02:40:44;;;;;;;4.80;1.87;;;10.10;99.90;;;;;;5050370;28;20284;-78
2022/09/20 02:43:17;;;;;;;9.67;2.70;;;10.00;99.90;;;;;;5059204;28;20213;-78
2022/09/20 02:45:52;;;;;;;10.83;2.67;;;9.90;99.90;;;;;;5069285;28;20607;-78
2022/09/20 02:48:27;;;;;;;11.00;2.50;;;9.90;99.90;;;;;;5053290;28;20628;-77
2022/09/20 02:51:03;;;;;;;8.90;2.40;;;9.80;99.90;;;;;;5045991;28;20198;-77
2022/09/20 02:53:38;;;;;;;10.07;2.80;;;9.80;99.90;;;;;;5056377;28;20199;-77
2022/09/20 02:56:13;;;;;;;5.90;2.00;;;9.80;99.90;;;;;;5055937;28;20222;-77
2022/09/20 02:58:52;;;;;;;10.73;2.63;;;9.70;99.90;;;;;;5055389;28;20198;-77
2022/09/20 03:01:30;;;;;;;8.53;2.20;;;9.70;99.90;;;;;;5054801;28;20217;-77
2022/09/20 03:04:10;;;;;;;7.50;2.20;;;9.70;99.90;;;;;;5047009;28;20202;-77
2022/09/20 03:06:45;;;;;;;6.03;2.20;;;9.70;99.90;;;;;;5063784;28;20305;-78
2022/09/20 03:09:21;;;;;;;9.20;2.70;;;9.60;99.90;;;;;;5049599;28;20187;-78
2022/09/20 03:11:58;;;;;;;6.93;2.80;;;9.60;99.90;;;;;;5052215;28;20204;-77
2022/09/20 03:14:31;;;;;;;8.33;2.53;;;9.60;99.90;;;;;;5055889;28;20214;-78
2022/09/20 03:17:10;;;;;;;10.90;2.97;;;9.60;99.90;;;;;;5054933;28;20206;-77
2022/09/20 03:19:52;;;;;;;8.20;2.57;;;9.60;99.90;;;;;;5055845;28;20184;-77
2022/09/20 03:22:31;;;;;;;8.33;2.27;;;9.70;99.90;;;;;;5063883;28;20206;-78
2022/09/20 03:25:18;;;;;;;7.77;2.73;;;9.70;99.90;;;;;;5042025;28;20222;-80
2022/09/20 03:27:55;;;;;;;9.10;2.17;;;9.80;99.90;;;;;;5059690;28;20199;-77
2022/09/20 03:30:40;;;;;;;10.53;2.73;;;9.80;99.90;;;;;;5052890;28;20207;-77
2022/09/20 03:33:17;;;;;;;8.07;2.70;;;9.80;99.90;;;;;;5059873;28;20205;-77
2022/09/20 03:36:00;;;;;;;11.57;3.00;;;9.90;99.90;;;;;;5048694;28;20619;-78
2022/09/20 03:38:51;;;;;;;9.67;2.33;;;9.90;99.90;;;;;;5062146;28;20247;-78
2022/09/20 03:41:31;;;;;;;10.37;2.47;;;9.90;99.90;;;;;;5053286;28;20353;-77
2022/09/20 03:44:15;;;;;;;7.97;2.50;;;10.00;99.90;;;;;;5051013;28;20677;-77
2022/09/20 03:46:45;;;;;;;10.70;3.43;;;10.00;99.90;;;;;;5064325;28;20585;-77
2022/09/20 03:50:00;;;;;;;8.33;2.50;;;10.00;99.90;;;;;;5053286;28;20260;-77
2022/09/20 03:52:51;;;;;;;7.20;2.57;;;10.00;99.90;;;;;;5047532;28;20203;-77
2022/09/20 03:55:47;;;;;;;10.40;3.33;;;10.00;99.90;;;;;;5053463;28;20593;-77
2022/09/20 03:58:27;;;;;;;7.47;2.50;;;10.10;99.90;;;;;;5052985;28;20202;-77
2022/09/20 04:01:09;;;;;;;10.03;2.60;;;10.10;99.90;;;;;;5048701;28;20214;-77
2022/09/20 04:03:44;;;;;;;9.53;2.70;;;10.00;99.90;;;;;;5051047;28;20203;-77
2022/09/20 04:06:38;;;;;;;11.80;2.30;;;10.00;99.90;;;;;;5066435;28;20304;-77
2022/09/20 04:09:27;;;;;;;9.17;3.00;;;10.10;99.90;;;;;;5049552;28;20210;-77
2022/09/20 04:12:04;;;;;;;10.60;2.30;;;10.10;99.90;;;;;;5053197;28;20210;-77
2022/09/20 04:14:40;;;;;;;9.67;3.00;;;10.20;99.90;;;;;;5049860;28;20207;-78
2022/09/20 04:17:23;;;;;;;9.70;2.73;;;10.10;99.90;;;;;;5053898;28;20225;-83
2022/09/20 04:19:58;;;;;;;6.63;3.00;;;10.10;99.90;;;;;;5052792;28;20207;-77
2022/09/20 04:22:27;;;;;;;23.87;9.77;;;10.10;99.90;;;;;;5055434;28;20207;-78
2022/09/20 04:25:00;;;;;;;21.17;9.33;;;10.20;99.90;;;;;;5046132;28;20227;-77
2022/09/20 04:27:37;;;;;;;18.53;6.80;;;10.20;99.90;;;;;;5051576;28;20203;-77
2022/09/20 04:30:06;;;;;;;11.40;5.70;;;10.20;99.90;;;;;;5051332;28;20515;-77
2022/09/20 04:32:40;;;;;;;13.57;4.30;;;10.20;99.90;;;;;;5052641;28;20202;-78
2022/09/20 04:38:12;;;;;;;17.23;8.83;;;10.30;99.90;;;;;;5054389;28;20212;-77
2022/09/20 04:41:10;;;;;;;13.23;5.50;;;10.30;99.90;;;;;;5058980;28;20211;-77
2022/09/20 04:44:27;;;;;;;9.13;3.90;;;10.20;99.90;;;;;;5071268;28;20203;-77
2022/09/20 04:47:45;;;;;;;11.00;3.90;;;10.30;99.90;;;;;;5047049;28;20264;-77
2022/09/20 04:50:41;;;;;;;9.57;3.57;;;10.30;99.90;;;;;;5050751;28;20909;-77
2022/09/20 04:53:34;;;;;;;10.37;4.13;;;10.30;99.90;;;;;;5053799;28;20199;-77
2022/09/20 04:56:03;;;;;;;10.40;4.17;;;10.50;99.90;;;;;;5027772;28;20241;-78
2022/09/20 04:58:53;;;;;;;12.37;3.90;;;10.30;99.90;;;;;;5032774;28;20715;-78
2022/09/20 05:01:54;;;;;;;11.63;3.63;;;10.40;99.90;;;;;;5046736;28;20202;-77
2022/09/20 05:05:02;;;;;;;11.60;3.83;;;10.40;99.90;;;;;;5028097;28;20311;-78
2022/09/20 05:08:16;;;;;;;10.33;4.10;;;10.40;99.90;;;;;;5054306;28;20654;-78
2022/09/20 05:11:29;;;;;;;8.30;4.00;;;10.40;99.90;;;;;;5053334;28;20829;-77
2022/09/20 05:14:24;;;;;;;9.50;5.57;;;10.40;99.90;;;;;;5061899;28;20223;-77
2022/09/20 05:17:14;;;;;;;11.50;5.13;;;10.40;99.90;;;;;;5052588;28;20210;-77
2022/09/20 05:19:57;;;;;;;12.13;4.73;;;10.40;99.90;;;;;;5052347;28;20203;-77
2022/09/20 05:22:59;;;;;;;10.87;4.40;;;10.40;99.90;;;;;;5051931;28;20256;-77
2022/09/20 05:25:47;;;;;;;11.27;4.83;;;10.50;99.90;;;;;;5061519;28;20684;-77
2022/09/20 05:28:22;;;;;;;10.90;5.43;;;10.40;99.90;;;;;;5058806;28;20209;-77
2022/09/20 05:30:53;;;;;;;15.07;5.93;;;10.40;99.90;;;;;;5047673;28;20205;-77
2022/09/20 05:33:24;;;;;;;13.40;5.23;;;10.50;99.90;;;;;;5053098;28;20206;-77
2022/09/20 05:36:04;;;;;;;11.67;5.27;;;10.50;99.90;;;;;;5073721;28;20222;-77
2022/09/20 05:38:43;;;;;;;16.57;5.93;;;10.50;99.90;;;;;;5054994;28;20210;-77
2022/09/20 05:41:18;;;;;;;11.70;5.80;;;10.40;99.90;;;;;;5070769;28;20588;-77
2022/09/20 05:43:53;;;;;;;12.10;4.93;;;10.30;99.90;;;;;;5074353;28;20248;-77
2022/09/20 05:46:34;;;;;;;12.17;5.73;;;10.40;99.90;;;;;;5055954;28;20313;-78
2022/09/20 05:49:11;;;;;;;12.03;6.00;;;10.50;99.90;;;;;;5067492;28;20195;-78
2022/09/20 05:51:53;;;;;;;13.83;5.90;;;10.60;99.90;;;;;;5043310;28;20617;-78
2022/09/20 05:54:51;;;;;;;10.70;5.37;;;10.50;99.90;;;;;;5039391;28;20330;-79
2022/09/20 05:57:31;;;;;;;9.50;5.30;;;10.50;99.90;;;;;;5029565;28;20214;-79
2022/09/20 06:00:07;;;;;;;12.53;6.63;;;10.50;99.90;;;;;;5050583;28;20690;-78
2022/09/20 06:02:47;;;;;;;10.00;5.40;;;10.50;99.90;;;;;;5056533;28;20632;-78
2022/09/20 06:05:17;;;;;;;17.00;6.30;;;10.60;99.90;;;;;;5051321;28;20226;-78
2022/09/20 06:08:04;;;;;;;16.77;5.50;;;10.60;99.90;;;;;;5050097;28;20198;-78
2022/09/20 06:10:54;;;;;;;11.17;5.23;;;10.50;99.90;;;;;;5045699;28;20679;-78
2022/09/20 06:13:42;;;;;;;11.33;5.07;;;10.60;99.90;;;;;;5067278;28;20576;-78
2022/09/20 06:16:14;;;;;;;11.63;4.77;;;10.60;99.90;;;;;;5068111;28;20226;-78
2022/09/20 06:18:47;;;;;;;11.33;4.47;;;10.60;99.90;;;;;;5051397;28;20293;-78
2022/09/20 06:21:30;;;;;;;15.23;4.90;;;10.60;99.90;;;;;;5044027;28;20210;-78
2022/09/20 06:24:00;;;;;;;11.87;4.87;;;10.60;99.90;;;;;;5046186;28;20306;-78
2022/09/20 06:26:32;;;;;;;12.77;4.10;;;10.50;99.90;;;;;;5052113;28;20229;-79
2022/09/20 06:29:04;;;;;;;7.50;3.93;;;10.60;99.90;;;;;;5051228;28;20295;-79
2022/09/20 06:31:31;;;;;;;10.57;4.17;;;10.60;99.90;;;;;;5050277;28;20195;-79
2022/09/20 06:34:03;;;;;;;8.23;3.67;;;10.60;99.90;;;;;;5051271;28;20314;-79
2022/09/20 06:42:12;;;;;;;10.00;4.40;;;10.60;99.90;;;;;;5044044;28;20203;-79
2022/09/20 06:44:40;;;;;;;10.10;3.73;;;10.70;99.90;;;;;;5062945;28;20203;-79
2022/09/20 06:47:07;;;;;;;13.07;4.10;;;10.80;99.90;;;;;;5055602;28;20315;-79
2022/09/20 06:49:35;;;;;;;8.83;3.47;;;10.80;99.90;;;;;;5042171;28;20199;-79
2022/09/20 06:52:04;;;;;;;8.60;3.10;;;10.70;99.90;;;;;;5054674;28;20204;-79
2022/09/20 06:54:31;;;;;;;8.87;3.20;;;10.80;99.90;;;;;;5050161;28;20270;-79
2022/09/20 06:56:58;;;;;;;8.40;3.53;;;10.80;99.90;;;;;;5042012;28;20212;-79
2022/09/20 06:59:26;;;;;;;11.00;4.43;;;10.80;99.90;;;;;;5044229;28;20215;-79
2022/09/20 07:01:53;;;;;;;11.33;4.00;;;10.80;99.90;;;;;;5052322;28;20199;-78
2022/09/20 07:04:20;;;;;;;11.50;6.00;;;10.90;99.90;;;;;;5053898;28;20195;-79
2022/09/20 07:06:47;;;;;;;15.13;4.00;;;11.00;99.90;;;;;;5063816;28;20309;-79
2022/09/20 07:09:14;;;;;;;10.37;4.03;;;11.00;99.90;;;;;;5052276;28;20203;-78
2022/09/20 07:11:43;;;;;;;8.87;2.83;;;11.00;99.90;;;;;;5052304;28;20199;-78
2022/09/20 07:14:10;;;;;;;12.00;3.20;;;11.00;99.90;;;;;;5046015;28;20218;-78
2022/09/20 07:16:39;;;;;;;11.07;4.87;;;11.00;99.90;;;;;;5050187;28;20246;-79
2022/09/20 07:19:06;;;;;;;11.67;4.77;;;11.20;99.90;;;;;;5045606;28;20210;-79
2022/09/20 07:21:32;;;;;;;9.73;3.70;;;11.20;99.90;;;;;;5046550;28;20206;-79
2022/09/20 07:24:00;;;;;;;10.20;3.63;;;11.20;99.90;;;;;;5051928;28;20273;-79
2022/09/20 07:26:29;;;;;;;9.77;3.30;;;11.20;99.90;;;;;;5051259;28;20255;-79
2022/09/20 07:28:57;;;;;;;13.00;3.60;;;11.20;99.90;;;;;;5045311;28;20257;-79
2022/09/20 07:31:26;;;;;;;10.67;3.90;;;11.30;99.90;;;;;;5044381;28;20600;-79
2022/09/20 07:33:54;;;;;;;8.67;3.03;;;11.30;99.90;;;;;;5041005;28;20203;-78
2022/09/20 07:36:22;;;;;;;9.80;3.30;;;11.40;99.90;;;;;;5048736;28;20651;-79
2022/09/20 07:38:50;;;;;;;11.50;4.47;;;11.40;99.90;;;;;;5041940;28;20207;-79
2022/09/20 07:41:18;;;;;;;12.60;4.30;;;11.50;99.90;;;;;;5052616;28;20675;-79
2022/09/20 07:43:45;;;;;;;8.43;3.57;;;11.60;99.90;;;;;;5046449;28;20277;-79
2022/09/20 07:46:13;;;;;;;9.03;4.03;;;11.70;99.90;;;;;;5057646;28;20313;-79
2022/09/20 07:48:40;;;;;;;17.03;4.20;;;11.70;99.90;;;;;;5061332;28;20226;-79
2022/09/20 07:51:11;;;;;;;11.30;3.60;;;11.70;99.90;;;;;;5048657;28;20578;-79
2022/09/20 07:53:39;;;;;;;10.57;4.03;;;11.80;99.90;;;;;;5048465;28;20195;-79
2022/09/20 07:56:07;;;;;;;10.97;4.10;;;11.80;99.90;;;;;;5040481;28;20233;-78
2022/09/20 07:58:35;;;;;;;9.27;3.83;;;11.60;99.90;;;;;;5047872;28;20211;-79
2022/09/20 08:01:07;;;;;;;9.63;4.13;;;11.60;99.90;;;;;;5041974;28;20199;-79
2022/09/20 08:03:34;;;;;;;11.27;4.50;;;11.70;99.90;;;;;;5047536;28;20230;-79
2022/09/20 08:06:03;;;;;;;12.80;4.50;;;11.80;99.90;;;;;;5054505;28;20227;-79
2022/09/20 08:08:35;;;;;;;11.43;4.97;;;11.80;99.90;;;;;;5045963;28;20706;-79
2022/09/20 08:11:04;;;;;;;17.40;6.70;;;11.70;99.90;;;;;;5045132;28;20219;-79
2022/09/20 08:13:31;;;;;;;9.90;4.73;;;11.70;99.90;;;;;;5051669;28;20209;-78
2022/09/20 08:16:02;;;;;;;10.07;4.47;;;11.80;99.90;;;;;;5046360;28;20249;-79
2022/09/20 08:18:28;;;;;;;9.20;4.40;;;11.90;99.90;;;;;;5051239;28;20210;-79
2022/09/20 08:20:55;;;;;;;9.37;4.13;;;11.90;99.90;;;;;;5040402;28;20270;-79
2022/09/20 08:23:22;;;;;;;8.40;3.87;;;11.90;99.90;;;;;;5038289;28;20211;-79
2022/09/20 08:25:50;;;;;;;10.17;4.00;;;12.10;99.90;;;;;;5050076;28;20239;-79
2022/09/20 08:28:17;;;;;;;9.03;4.87;;;12.10;99.90;;;;;;5039663;28;20214;-79
2022/09/20 08:30:44;;;;;;;8.23;4.30;;;12.00;99.90;;;;;;5048158;28;20233;-79
2022/09/20 08:33:11;;;;;;;11.70;4.17;;;12.10;99.90;;;;;;5048348;28;20214;-79
2022/09/20 08:35:38;;;;;;;13.97;4.57;;;12.10;99.90;;;;;;5046851;28;20218;-79
2022/09/20 08:38:06;;;;;;;10.87;3.57;;;12.40;99.90;;;;;;5042312;28;20203;-79
2022/09/20 08:40:34;;;;;;;9.03;4.67;;;12.70;99.90;;;;;;5042662;28;20242;-79
2022/09/20 08:43:03;;;;;;;8.50;4.10;;;12.90;99.90;;;;;;5048336;28;20230;-79
2022/09/20 08:45:30;;;;;;;7.57;4.63;;;13.20;99.90;;;;;;5046561;28;20703;-78
2022/09/20 08:48:00;;;;;;;10.57;4.83;;;13.40;99.90;;;;;;5046658;28;20509;-79
2022/09/20 08:50:27;;;;;;;8.33;4.27;;;13.50;99.90;;;;;;5047077;28;20207;-78
2022/09/20 08:52:57;;;;;;;5.77;3.40;;;13.30;99.90;;;;;;5045268;28;20294;-78
2022/09/20 08:55:30;;;;;;;11.90;4.00;;;13.20;99.90;;;;;;5040790;28;20224;-78
2022/09/20 08:57:58;;;;;;;9.10;4.93;;;13.20;99.90;;;;;;5053521;28;20663;-78
2022/09/20 09:00:31;;;;;;;9.37;4.83;;;13.00;99.90;;;;;;5043221;28;20223;-78
2022/09/20 09:03:00;;;;;;;11.13;4.53;;;13.10;99.90;;;;;;5051425;28;20195;-78
2022/09/20 09:05:31;;;;;;;9.93;4.83;;;13.00;99.90;;;;;;5050226;28;20231;-78
2022/09/20 09:08:00;;;;;;;13.73;5.47;;;12.90;99.90;;;;;;5046258;28;20211;-78
2022/09/20 09:10:33;;;;;;;11.30;5.50;;;12.90;99.90;;;;;;5041557;28;20625;-78
2022/09/20 09:13:01;;;;;;;8.67;5.17;;;13.20;99.90;;;;;;5038551;28;20187;-78
2022/09/20 09:15:33;;;;;;;12.93;5.47;;;13.40;99.90;;;;;;5051792;28;20699;-78
2022/09/20 09:18:00;;;;;;;11.20;6.10;;;13.50;99.90;;;;;;5046266;28;20206;-78
2022/09/20 09:20:28;;;;;;;12.90;7.23;;;13.40;99.90;;;;;;5048510;28;20993;-78
2022/09/20 09:23:03;;;;;;;10.80;7.30;;;13.60;99.90;;;;;;5041159;28;20639;-78
2022/09/20 09:25:33;;;;;;;13.33;7.17;;;13.30;99.90;;;;;;5053833;28;20535;-78
2022/09/20 09:28:04;;;;;;;12.27;7.20;;;13.50;99.90;;;;;;5047250;28;20227;-78
2022/09/20 09:30:34;;;;;;;12.53;7.63;;;13.50;99.90;;;;;;5052003;28;20302;-78
2022/09/20 09:33:25;;;;;;;9.20;6.67;;;13.60;99.90;;;;;;5055029;28;20262;-78
2022/09/20 09:36:04;;;;;;;10.47;5.77;;;13.60;99.90;;;;;;5041907;28;20257;-78
2022/09/20 09:38:33;;;;;;;11.33;7.17;;;13.80;99.90;;;;;;5042073;28;20211;-78
2022/09/20 09:41:01;;;;;;;11.20;6.60;;;13.90;99.90;;;;;;5047154;28;20207;-78
2022/09/20 09:43:31;;;;;;;11.17;6.40;;;13.80;99.90;;;;;;5043900;28;20210;-78
2022/09/20 09:46:20;;;;;;;12.33;6.63;;;13.70;99.90;;;;;;5047716;28;20248;-78
2022/09/20 09:48:48;;;;;;;11.97;5.93;;;14.00;99.90;;;;;;5043561;28;20199;-78
2022/09/20 09:51:17;;;;;;;10.63;5.23;;;14.00;99.90;;;;;;5037629;28;20199;-78
2022/09/20 09:53:45;;;;;;;10.10;5.53;;;14.30;99.90;;;;;;5040738;28;20207;-78
2022/09/20 09:56:46;;;;;;;7.13;4.90;;;14.50;99.90;;;;;;5039557;28;20317;-78
2022/09/20 09:59:38;;;;;;;9.13;4.07;;;14.20;99.90;;;;;;5043245;28;20240;-79
2022/09/20 10:02:23;;;;;;;10.10;3.73;;;14.30;99.90;;;;;;5039721;28;20666;-78
2022/09/20 10:04:57;;;;;;;8.30;3.43;;;14.50;99.90;;;;;;5042199;28;20297;-79
2022/09/20 10:07:32;;;;;;;7.07;3.07;;;14.70;99.90;;;;;;5042640;28;20219;-78
2022/09/20 10:10:08;;;;;;;6.93;2.80;;;15.00;99.90;;;;;;5045386;28;20198;-78
2022/09/20 10:12:47;;;;;;;7.63;2.97;;;14.80;99.90;;;;;;5039614;28;20609;-78
2022/09/20 10:15:28;;;;;;;5.37;2.80;;;14.90;99.90;;;;;;5037973;28;20227;-78
2022/09/20 10:18:19;;;;;;;7.00;2.30;;;14.80;1.00;;;;;;5046213;28;20569;-78
2022/09/20 10:20:57;;;;;;;6.17;2.63;;;14.30;43.70;;;;;;5045844;28;20199;-78
2022/09/20 10:23:40;;;;;;;5.50;2.07;;;14.70;99.90;;;;;;5043534;28;20581;-78
2022/09/20 10:26:21;;;;;;;6.17;1.77;;;14.30;1.00;;;;;;5051652;28;20254;-78
2022/09/20 10:28:59;;;;;;;5.03;2.33;;;14.30;1.00;;;;;;5049608;28;20206;-82
2022/09/20 10:31:43;;;;;;;6.30;2.60;;;14.50;1.00;;;;;;5043573;28;20209;-78
2022/09/20 10:34:44;;;;;;;6.87;2.03;;;14.60;1.00;;;;;;5041451;28;20207;-78
2022/09/20 10:37:21;;;;;;;4.20;2.20;;;14.50;1.00;;;;;;5043878;28;20206;-79
2022/09/20 10:39:57;;;;;;;4.10;2.20;;;14.80;1.00;;;;;;5041173;28;20323;-78
2022/09/20 10:45:19;;;;;;;5.35;2.65;;;14.60;1.00;;;;;;5041083;28;20284;-79
2022/09/20 10:47:57;;;;;;;4.18;1.98;;;14.80;1.00;;;;;;5040897;28;20339;-78
2022/09/20 10:50:33;;;;;;;5.28;1.80;;;14.90;12.10;;;;;;5039817;28;20604;-78
2022/09/20 10:53:26;;;;;;;4.22;1.50;;;14.80;1.00;;;;;;5045008;28;20285;-78
2022/09/20 10:56:08;;;;;;;4.10;2.23;;;14.80;1.00;;;;;;5040875;28;20231;-78
2022/09/20 10:59:16;;;;;;;3.57;1.47;;;15.80;1.00;;;;;;5040112;28;20213;-78
2022/09/20 11:01:53;;;;;;;4.00;1.65;;;15.80;1.00;;;;;;5018563;28;20200;-79
2022/09/20 11:04:44;;;;;;;6.07;1.90;;;15.80;1.00;;;;;;5039379;28;20302;-78
2022/09/20 11:07:18;;;;;;;4.45;2.17;;;15.90;99.90;;;;;;5039322;28;20222;-78
2022/09/20 11:09:50;;;;;;;4.78;1.70;;;16.50;1.00;;;;;;5043037;28;20205;-79
2022/09/20 11:12:25;;;;;;;5.28;1.80;;;16.80;1.00;;;;;;5050805;28;20202;-79
2022/09/20 11:14:57;;;;;;;7.00;1.90;;;16.70;1.00;;;;;;5039328;28;20241;-79
2022/09/20 11:17:30;;;;;;;3.22;1.60;;;16.30;99.90;;;;;;5047174;28;20202;-79
2022/09/20 11:20:04;;;;;;;6.10;2.00;;;16.30;1.00;;;;;;5049309;28;20590;-79
2022/09/20 11:22:41;;;;;;;4.35;1.50;;;16.70;1.00;;;;;;5044506;28;20631;-78
2022/09/20 11:25:16;;;;;;;2.78;1.50;;;17.60;99.90;;;;;;5054233;28;20229;-78
2022/09/20 11:27:48;;;;;;;2.10;1.55;;;17.60;1.00;;;;;;5054673;28;20222;-78
2022/09/20 11:30:17;;;;;;;1.95;1.30;;;17.60;1.00;;;;;;5050036;28;20199;-78
2022/09/20 11:32:49;;;;;;;5.07;1.80;;;17.10;1.00;;;;;;5052927;28;20208;-78
2022/09/20 11:35:25;;;;;;;2.38;1.50;;;17.30;1.00;;;;;;5052719;28;20216;-78
2022/09/20 11:38:06;;;;;;;2.35;1.13;;;17.60;28.80;;;;;;5051727;28;20233;-78
2022/09/20 11:40:36;;;;;;;3.15;1.20;;;16.90;1.00;;;;;;5054248;28;20667;-78
2022/09/20 11:43:07;;;;;;;2.33;1.13;;;16.30;1.00;;;;;;5052991;28;20205;-78
2022/09/20 11:45:38;;;;;;;2.50;1.77;;;16.70;1.00;;;;;;5050464;28;20234;-78
2022/09/20 11:48:14;;;;;;;3.05;1.20;;;16.70;1.00;;;;;;5052165;28;20313;-78
2022/09/20 11:51:21;;;;;;;3.28;1.58;;;15.90;1.00;;;;;;5048956;28;20202;-78
2022/09/20 11:54:02;;;;;;;2.53;1.33;;;16.20;1.00;;;;;;5047722;28;20209;-79
2022/09/20 11:56:31;;;;;;;4.18;1.23;;;16.20;1.00;;;;;;5045769;28;20590;-78
2022/09/20 11:59:00;;;;;;;5.65;1.40;;;16.60;1.00;;;;;;5037469;28;20212;-78
2022/09/20 12:01:31;;;;;;;4.25;2.05;;;16.50;1.00;;;;;;5044635;28;20203;-78
2022/09/20 12:04:01;;;;;;;6.32;2.20;;;16.40;1.00;;;;;;5045664;28;20214;-78
2022/09/20 12:06:32;;;;;;;2.90;1.63;;;16.30;55.80;;;;;;5046760;28;20248;-78
2022/09/20 12:09:03;;;;;;;4.78;1.95;;;16.60;99.90;;;;;;5046860;28;20237;-78
2022/09/20 12:11:34;;;;;;;5.55;2.00;;;16.30;99.90;;;;;;5052773;28;20207;-79
2022/09/20 12:14:04;;;;;;;5.85;1.45;;;16.60;1.00;;;;;;5054623;28;20211;-78
2022/09/20 12:16:41;;;;;;;5.57;2.88;;;16.50;1.00;;;;;;5048525;28;20772;-78
2022/09/20 12:19:12;;;;;;;4.47;2.08;;;17.00;2.20;;;;;;5048198;28;20234;-78
2022/09/20 12:22:25;;;;;;;6.13;2.20;;;17.50;99.90;;;;;;5046791;28;20202;-79
2022/09/20 12:25:25;;;;;;;4.88;1.38;;;17.60;99.90;;;;;;5048862;28;20679;-78
2022/09/20 12:27:59;;;;;;;5.93;1.45;;;18.10;1.00;;;;;;5038781;28;20307;-80
2022/09/20 12:30:28;;;;;;;4.00;1.20;;;16.80;1.00;;;;;;5052210;28;20224;-79
2022/09/20 12:32:57;;;;;;;3.88;1.23;;;16.20;1.00;;;;;;5056901;28;20230;-79
2022/09/20 12:36:15;;;;;;;5.43;2.05;;;16.10;99.90;;;;;;5048964;28;20246;-79
2022/09/20 12:39:05;;;;;;;3.17;1.55;;;16.00;99.90;;;;;;5046180;28;20225;-80
2022/09/20 12:41:49;;;;;;;4.65;1.60;;;16.20;99.90;;;;;;5046638;28;20282;-80
2022/09/20 12:44:35;;;;;;;6.93;1.60;;;16.40;93.30;;;;;;5043531;28;20368;-78
2022/09/20 12:47:07;;;;;;;4.68;1.67;;;16.20;99.90;;;;;;5041707;28;20195;-81
2022/09/20 12:52:52;;;;;;;3.78;1.00;;;15.90;99.90;;;;;;5041149;28;20643;-82
2022/09/20 12:55:54;;;;;;;4.30;1.20;;;15.40;1.00;;;;;;5042874;28;20843;-83
2022/09/20 12:58:27;;;;;;;2.58;1.17;;;15.70;99.90;;;;;;4984252;28;20742;-82
2022/09/20 13:01:30;;;;;;;3.38;1.33;;;15.90;1.00;;;;;;4981049;28;20272;-82
2022/09/20 13:04:36;;;;;;;3.55;1.23;;;16.20;1.00;;;;;;5026126;28;20301;-82
2022/09/20 13:07:46;;;;;;;2.83;0.80;;;16.10;1.00;;;;;;5024664;28;20657;-82
2022/09/20 13:10:25;;;;;;;2.88;1.08;;;16.30;1.00;;;;;;5048433;28;20203;-82
2022/09/20 13:12:56;;;;;;;2.97;1.63;;;16.30;1.00;;;;;;5046704;28;20286;-81
2022/09/20 13:15:23;;;;;;;4.25;1.35;;;16.30;1.00;;;;;;5046998;28;20225;-82
2022/09/20 13:17:54;;;;;;;5.60;1.33;;;16.90;99.90;;;;;;5048764;28;20659;-82
2022/09/20 13:20:24;;;;;;;1.88;0.75;;;17.00;1.00;;;;;;5046142;28;20202;-82
2022/09/20 13:22:53;;;;;;;4.50;0.95;;;17.30;99.90;;;;;;5047354;28;20212;-83
2022/09/20 13:25:22;;;;;;;1.90;0.85;;;17.80;99.90;;;;;;5045152;28;20226;-83
2022/09/20 13:28:01;;;;;;;0.73;0.47;;;17.80;1.00;;;;;;5045723;28;20219;-82
2022/09/20 13:30:31;;;;;;;1.63;0.85;;;17.20;1.00;;;;;;5045525;28;20971;-81
2022/09/20 13:33:15;;;;;;;2.75;0.60;;;17.20;1.00;;;;;;5048686;28;20207;-82
2022/09/20 13:35:46;;;;;;;1.73;0.75;;;17.10;1.00;;;;;;5048412;28;20219;-82
2022/09/20 13:38:14;;;;;;;0.90;0.50;;;16.90;1.00;;;;;;5047526;28;20619;-82
2022/09/20 13:40:43;;;;;;;2.47;0.80;;;17.50;1.00;;;;;;5053464;28;20690;-82
2022/09/20 13:43:27;;;;;;;3.55;0.75;;;17.50;1.00;;;;;;5063904;28;20199;-82
2022/09/20 13:45:56;;;;;;;2.70;0.98;;;17.20;1.00;;;;;;5049015;28;20264;-83
2022/09/20 13:48:26;;;;;;;3.78;1.00;;;17.40;1.00;;;;;;5055999;28;20214;-81
2022/09/20 13:50:53;;;;;;;3.42;1.25;;;17.50;1.00;;;;;;5049297;28;20200;-82
2022/09/20 13:53:23;;;;;;;2.25;1.00;;;17.40;1.00;;;;;;5043462;28;20215;-82
2022/09/20 13:55:53;;;;;;;1.00;0.63;;;17.50;1.00;;;;;;5053907;28;20227;-87